RJTL(METAR)
05/26 20:00
METAR RJTL 261100Z 05004KT 020V080 9999 SCT040 BKN230 19/12 Q1010
RMK 3SC040 A2984=
戻る
トップページへ戻る
IMOC Co,.Ltd.